Check out our new BloomSky Weather System.

Active alerts

Houston, TX
  Details for Houston, TX River Flood Warning  +1 additional alert
Fort Bend, TX
  Details for Fort Bend, TX River Flood Warning  +2 additional alerts


Thunder radar  blitzortung!


Rain radar more information rain snow radar


Visit our other weather sites:

Template documentation
and downloads

And another site



Weather Underground History page Text

Daily Summary for August 10, 2017 Units:  English    Metric   Both
« Previous Day
Next Day »
Daily Weekly Monthly Yearly Custom
  High: Low: Average:
Temperature: TemperatureF °F 77.7 °F 85.5 °F
Dew Point: DewpointF °F 73.2 °F 77.9 °F
Humidity: Humidity % 47 % 80 %
Wind Speed: WindSpeedMPH mph 0.0 mph 1.3 mph
Wind Gust: WindSpeedGustMPH mph - -
Wind:- - SSE
Pressure: PressureIn in 29.98 in -
Precipitation: 0.00 in    
Historical Graphs
 
 
Tabular Data for August 10, 2017
Time Temperature Dew Point Pressure Wind Wind Speed Wind Gust Humidity Rainfall Rate (Hourly)
TemperatureF °F DewpointF °F PressureIn in Calm     Humidity % HourlyPrecipIn in
00:01 81.7 °F 79.2 °F 30.03 in ESE 1.0 mph 2.0 mph 92 % 0.00 in
00:06 81.7 °F 78.8 °F 30.02 in Calm   2.0 mph 91 % 0.00 in
00:11 81.7 °F 78.8 °F 30.02 in Calm   2.0 mph 91 % 0.00 in
00:16 81.5 °F 78.6 °F 30.02 in Calm   1.0 mph 91 % 0.00 in
00:21 81.3 °F 78.4 °F 30.02 in Calm   1.0 mph 91 % 0.00 in
00:26 81.0 °F 78.1 °F 30.02 in Calm     91 % 0.00 in
00:31 81.0 °F 78.1 °F 30.02 in Calm   1.0 mph 91 % 0.00 in
00:36 80.8 °F 78.3 °F 30.02 in Calm   1.0 mph 92 % 0.00 in
00:41 80.8 °F 78.3 °F 30.02 in Calm   1.0 mph 92 % 0.00 in
00:46 80.8 °F 78.3 °F 30.02 in Calm   1.0 mph 92 % 0.00 in
00:51 80.8 °F 78.3 °F 30.02 in Calm   1.0 mph 92 % 0.00 in
00:56 80.8 °F 78.3 °F 30.02 in Calm   1.0 mph 92 % 0.00 in
01:01 80.8 °F 78.3 °F 30.02 in East 2.0 mph 2.0 mph 92 % 0.00 in
01:02 80.8 °F 78.3 °F 30.02 in East 1.0 mph 2.0 mph 92 % 0.00 in
01:07 80.8 °F 78.3 °F 30.02 in ESE 1.0 mph 2.0 mph 92 % 0.00 in
01:12 80.8 °F 77.9 °F 30.02 in Calm   2.0 mph 91 % 0.00 in
01:17 80.8 °F 77.9 °F 30.02 in Calm   2.0 mph 91 % 0.00 in
01:22 80.6 °F 77.7 °F 30.02 in Calm   2.0 mph 91 % 0.00 in
01:27 80.4 °F 77.5 °F 30.02 in ESE 1.0 mph 2.0 mph 91 % 0.00 in
01:32 80.4 °F 77.5 °F 30.02 in ESE 1.0 mph 1.0 mph 91 % 0.00 in
01:37 80.4 °F 77.5 °F 30.02 in Calm   2.0 mph 91 % 0.00 in
01:42 80.4 °F 77.5 °F 30.02 in Calm   2.0 mph 91 % 0.00 in
01:47 80.2 °F 77.4 °F 30.02 in Calm   2.0 mph 91 % 0.00 in
01:52 80.2 °F 77.4 °F 30.02 in Calm   1.0 mph 91 % 0.00 in
01:57 80.1 °F 77.5 °F 30.02 in Calm   1.0 mph 92 % 0.00 in
02:02 80.1 °F 77.5 °F 30.02 in SE 1.0 mph 1.0 mph 92 % 0.00 in
02:07 79.9 °F 77.4 °F 30.02 in Calm   1.0 mph 92 % 0.00 in
02:12 79.9 °F 77.4 °F 30.02 in Calm   1.0 mph 92 % 0.00 in
02:17 79.9 °F 77.4 °F 30.02 in Calm   1.0 mph 92 % 0.00 in
02:22 79.7 °F 77.2 °F 30.02 in Calm   1.0 mph 92 % 0.00 in
02:27 79.5 °F 77.4 °F 30.02 in Calm     93 % 0.00 in
02:32 79.3 °F 77.2 °F 30.02 in Calm     93 % 0.00 in
02:37 79.3 °F 77.2 °F 30.01 in Calm     93 % 0.00 in
02:47 79.3 °F 77.2 °F 30.01 in Calm   1.0 mph 93 % 0.00 in
02:52 79.2 °F 77.4 °F 30.01 in Calm   1.0 mph 94 % 0.00 in
02:57 79.2 °F 77.4 °F 30.01 in Calm   1.0 mph 94 % 0.00 in
03:02 79.0 °F 77.2 °F 30.01 in Calm     94 % 0.00 in
03:07 79.0 °F 77.2 °F 30.01 in Calm     94 % 0.00 in
03:12 79.0 °F 77.2 °F 30.01 in Calm     94 % 0.00 in
03:17 78.8 °F 77.2 °F 30.01 in Calm     95 % 0.00 in
03:22 78.8 °F 77.2 °F 30.01 in Calm     95 % 0.00 in
03:27 78.6 °F 77.0 °F 30.01 in Calm     95 % 0.00 in
03:32 78.6 °F 77.0 °F 30.01 in Calm     95 % 0.00 in
03:37 78.4 °F 76.8 °F 30.01 in Calm     95 % 0.00 in
03:42 78.4 °F 76.8 °F 30.01 in Calm     95 % 0.00 in
03:47 78.3 °F 76.6 °F 30.01 in Calm     95 % 0.00 in
03:52 78.3 °F 77.0 °F 30.01 in Calm     96 % 0.00 in
03:57 78.4 °F 77.2 °F 30.01 in Calm     96 % 0.00 in
04:02 78.3 °F 77.0 °F 30.01 in Calm     96 % 0.00 in
04:08 78.3 °F 77.0 °F 30.01 in Calm     96 % 0.00 in
04:13 78.1 °F 76.8 °F 30.01 in Calm     96 % 0.00 in
04:18 78.1 °F 76.8 °F 30.01 in Calm     96 % 0.00 in
04:23 78.1 °F 76.8 °F 30.01 in Calm     96 % 0.00 in
04:28 77.9 °F 76.6 °F 30.01 in Calm     96 % 0.00 in
04:33 77.9 °F 76.6 °F 30.01 in Calm     96 % 0.00 in
04:38 77.9 °F 77.0 °F 30.01 in Calm     97 % 0.00 in
04:43 77.9 °F 77.0 °F 30.01 in Calm     97 % 0.00 in
04:48 77.9 °F 77.0 °F 30.01 in Calm     97 % 0.00 in
04:53 77.9 °F 77.0 °F 30.01 in Calm     97 % 0.00 in
04:58 77.7 °F 76.8 °F 30.01 in Calm     97 % 0.00 in
05:03 77.7 °F 76.8 °F 30.01 in Calm     97 % 0.00 in
05:08 77.7 °F 76.8 °F 30.01 in Calm     97 % 0.00 in
05:13 77.7 °F 76.8 °F 30.01 in Calm     97 % 0.00 in
05:18 77.7 °F 76.8 °F 30.01 in Calm     97 % 0.00 in
05:23 77.7 °F 76.8 °F 30.01 in Calm     97 % 0.00 in
05:28 77.9 °F 77.0 °F 30.01 in Calm   1.0 mph 97 % 0.00 in
05:33 77.7 °F 76.8 °F 30.01 in Calm   1.0 mph 97 % 0.00 in
05:38 77.7 °F 76.8 °F 30.01 in Calm   1.0 mph 97 % 0.00 in
05:43 78.1 °F 77.2 °F 30.01 in Calm     97 % 0.00 in
05:48 78.1 °F 77.2 °F 30.01 in Calm   1.0 mph 97 % 0.00 in
05:53 78.3 °F 77.4 °F 30.01 in Calm   1.0 mph 97 % 0.00 in
05:58 78.3 °F 77.4 °F 30.01 in Calm   1.0 mph 97 % 0.00 in
06:03 78.3 °F 77.4 °F 30.01 in Calm   2.0 mph 97 % 0.00 in
06:08 78.1 °F 77.2 °F 30.02 in Calm   2.0 mph 97 % 0.00 in
06:13 78.1 °F 77.2 °F 30.02 in Calm   2.0 mph 97 % 0.00 in
06:18 78.1 °F 77.2 °F 30.02 in Calm     97 % 0.00 in
06:23 78.1 °F 77.2 °F 30.02 in Calm     97 % 0.00 in
06:28 78.1 °F 77.2 °F 30.03 in Calm     97 % 0.00 in
06:33 78.3 °F 77.4 °F 30.02 in ESE 1.0 mph 1.0 mph 97 % 0.00 in
06:38 78.3 °F 77.4 °F 30.03 in Calm   2.0 mph 97 % 0.00 in
06:43 78.3 °F 77.4 °F 30.03 in Calm   2.0 mph 97 % 0.00 in
06:48 78.1 °F 77.2 °F 30.03 in Calm   2.0 mph 97 % 0.00 in
06:53 78.1 °F 77.2 °F 30.03 in Calm   1.0 mph 97 % 0.00 in
06:58 78.3 °F 77.7 °F 30.04 in Calm     98 % 0.00 in
07:04 78.3 °F 77.7 °F 30.04 in Calm   1.0 mph 98 % 0.00 in
07:09 78.3 °F 77.4 °F 30.04 in Calm   1.0 mph 97 % 0.00 in
07:14 78.3 °F 77.4 °F 30.04 in Calm   1.0 mph 97 % 0.00 in
07:19 78.4 °F 77.9 °F 30.04 in Calm     98 % 0.00 in
07:24 78.6 °F 78.1 °F 30.04 in SSE 1.0 mph   98 % 0.00 in
07:29 79.0 °F 78.4 °F 30.04 in Calm   2.0 mph 98 % 0.00 in
07:34 79.2 °F 78.6 °F 30.05 in Calm   2.0 mph 98 % 0.00 in
07:39 79.5 °F 79.0 °F 30.05 in Calm   2.0 mph 98 % 0.00 in
07:44 80.1 °F 79.5 °F 30.05 in Calm   2.0 mph 98 % 0.00 in
07:49 80.6 °F 80.1 °F 30.05 in Calm   2.0 mph 98 % 0.00 in
07:54 81.0 °F 80.1 °F 30.05 in Calm   2.0 mph 97 % 0.00 in
07:59 81.3 °F 80.4 °F 30.06 in Calm   2.0 mph 97 % 0.00 in
08:01 81.7 °F 80.4 °F 30.06 in Calm   2.0 mph 96 % 0.00 in
08:06 82.0 °F 80.4 °F 30.06 in Calm   2.0 mph 95 % 0.00 in
08:11 82.4 °F 80.4 °F 30.06 in SE 3.0 mph 3.0 mph 94 % 0.00 in
08:16 82.9 °F 81.0 °F 30.06 in SSW 1.0 mph 4.0 mph 94 % 0.00 in
08:21 83.3 °F 81.1 °F 30.06 in SSW 2.0 mph 4.0 mph 93 % 0.00 in
08:26 83.8 °F 81.3 °F 30.07 in Calm   4.0 mph 92 % 0.00 in
08:31 84.4 °F 81.5 °F 30.07 in Calm   4.0 mph 91 % 0.00 in
08:36 84.7 °F 81.5 °F 30.07 in South 1.0 mph 4.0 mph 90 % 0.00 in
08:41 85.3 °F 81.7 °F 30.07 in SSW 1.0 mph 4.0 mph 89 % 0.00 in
08:46 85.6 °F 82.0 °F 30.07 in East 1.0 mph 4.0 mph 89 % 0.00 in
08:51 86.4 °F 82.8 °F 30.07 in South 2.0 mph 4.0 mph 89 % 0.00 in
08:56 87.1 °F 82.8 °F 30.07 in SE 2.0 mph 4.0 mph 87 % 0.00 in
09:01 86.9 °F 81.9 °F 30.07 in South 1.0 mph 4.0 mph 85 % 0.00 in
09:06 87.1 °F 81.7 °F 30.07 in SSE 2.0 mph 4.0 mph 84 % 0.00 in
09:11 86.7 °F 81.7 °F 30.07 in SSW 1.0 mph 5.0 mph 85 % 0.00 in
09:16 86.7 °F 81.3 °F 30.07 in SW 3.0 mph 6.0 mph 84 % 0.00 in
09:22 86.5 °F 81.5 °F 30.07 in SE 2.0 mph 6.0 mph 85 % 0.00 in
09:27 86.4 °F 81.7 °F 30.07 in SE 3.0 mph 6.0 mph 86 % 0.00 in
09:37 86.2 °F 80.8 °F 30.08 in SSW 1.0 mph 6.0 mph 84 % 0.00 in
09:42 86.0 °F 81.0 °F 30.08 in South 1.0 mph 6.0 mph 85 % 0.00 in
09:47 86.4 °F 81.0 °F 30.08 in SSW 1.0 mph 6.0 mph 84 % 0.00 in
09:52 87.1 °F 81.0 °F 30.08 in ESE 3.0 mph 7.0 mph 82 % 0.00 in
09:57 87.4 °F 80.4 °F 30.08 in SSW 2.0 mph 7.0 mph 80 % 0.00 in
10:02 88.5 °F 81.5 °F 30.08 in SSE 1.0 mph 7.0 mph 80 % 0.00 in
10:07 89.8 °F 81.7 °F 30.08 in SW 1.0 mph 7.0 mph 77 % 0.00 in
10:12 90.3 °F 80.4 °F 30.08 in West 1.0 mph 5.0 mph 73 % 0.00 in
10:17 90.3 °F 81.3 °F 30.08 in Calm   5.0 mph 75 % 0.00 in
10:22 90.7 °F 81.7 °F 30.08 in Calm   5.0 mph 75 % 0.00 in
10:27 91.0 °F 80.8 °F 30.09 in WNW 1.0 mph 2.0 mph 72 % 0.00 in
10:28 90.9 °F 80.6 °F 30.09 in South 1.0 mph 2.0 mph 72 % 0.00 in
10:33 91.0 °F 81.1 °F 30.09 in NW 4.0 mph 4.0 mph 73 % 0.00 in
10:38 91.0 °F 81.1 °F 30.09 in NW 1.0 mph 4.0 mph 73 % 0.00 in
10:41 91.0 °F 79.9 °F 30.09 in Calm   4.0 mph 70 % 0.00 in
10:46 90.9 °F 79.7 °F 30.09 in NW 1.0 mph 4.0 mph 70 % 0.00 in
10:51 90.3 °F 79.2 °F 30.09 in South 2.0 mph 3.0 mph 70 % 0.00 in
10:56 89.8 °F 79.2 °F 30.09 in Calm   3.0 mph 71 % 0.00 in
11:01 89.2 °F 79.0 °F 30.09 in SSW 1.0 mph 3.0 mph 72 % 0.00 in
11:06 89.2 °F 79.5 °F 30.09 in SSE 4.0 mph 4.0 mph 73 % 0.00 in
11:11 90.0 °F 79.7 °F 30.09 in SE 4.0 mph 5.0 mph 72 % 0.00 in
11:16 90.7 °F 80.1 °F 30.09 in SSE 3.0 mph 5.0 mph 71 % 0.00 in
11:21 91.2 °F 79.2 °F 30.09 in Calm   5.0 mph 68 % 0.00 in
11:26 91.8 °F 78.3 °F 30.08 in SSE 3.0 mph 5.0 mph 65 % 0.00 in
11:31 91.8 °F 79.7 °F 30.08 in South 1.0 mph 5.0 mph 68 % 0.00 in
11:36 92.5 °F 79.0 °F 30.08 in ESE 3.0 mph 5.0 mph 65 % 0.00 in
11:41 92.7 °F 81.5 °F 30.08 in NW 2.0 mph 5.0 mph 70 % 0.00 in
11:46 93.4 °F 79.9 °F 30.08 in East 1.0 mph 5.0 mph 65 % 0.00 in
11:51 93.9 °F 78.4 °F 30.08 in SE 1.0 mph 5.0 mph 61 % 0.00 in
11:56 93.0 °F 77.0 °F 30.08 in WNW 1.0 mph 4.0 mph 60 % 0.00 in
12:01 93.0 °F 77.0 °F 30.08 in West 1.0 mph 4.0 mph 60 % 0.00 in
12:06 93.4 °F 77.9 °F 30.08 in SSE 2.0 mph 3.0 mph 61 % 0.00 in
12:11 93.7 °F 77.2 °F 30.07 in South 3.0 mph 5.0 mph 59 % 0.00 in
12:16 93.9 °F 76.8 °F 30.07 in WNW 1.0 mph 5.0 mph 58 % 0.00 in
12:21 94.5 °F 76.3 °F 30.06 in Calm   5.0 mph 56 % 0.00 in
12:26 94.5 °F 76.3 °F 30.06 in SE 2.0 mph 4.0 mph 56 % 0.00 in
12:31 94.3 °F 75.6 °F 30.06 in Calm   4.0 mph 55 % 0.00 in
12:36 94.3 °F 76.1 °F 30.06 in Calm   4.0 mph 56 % 0.00 in
12:42 93.9 °F 75.7 °F 30.06 in Calm   4.0 mph 56 % 0.00 in
12:47 94.6 °F 77.5 °F 30.06 in West 1.0 mph 4.0 mph 58 % 0.00 in
12:52 94.6 °F 75.9 °F 30.06 in SW 1.0 mph 4.0 mph 55 % 0.00 in
12:57 94.8 °F 73.9 °F 30.05 in NNW 3.0 mph 4.0 mph 51 % 0.00 in
13:02 95.0 °F 76.8 °F 30.05 in SSW 2.0 mph 4.0 mph 56 % 0.00 in
13:07 95.5 °F 76.8 °F 30.05 in SSE 1.0 mph 5.0 mph 55 % 0.00 in
13:12 95.5 °F 76.3 °F 30.05 in South 2.0 mph 7.0 mph 54 % 0.00 in
13:17 95.0 °F 76.3 °F 30.05 in Calm   7.0 mph 55 % 0.00 in
13:22 94.3 °F 75.6 °F 30.04 in Calm   7.0 mph 55 % 0.00 in
13:27 94.5 °F 75.7 °F 30.04 in South 1.0 mph 4.0 mph 55 % 0.00 in
13:32 94.6 °F 75.9 °F 30.04 in SSW 5.0 mph 5.0 mph 55 % 0.00 in
13:37 95.2 °F 75.4 °F 30.04 in SSW 6.0 mph 7.0 mph 53 % 0.00 in
13:42 95.2 °F 76.5 °F 30.04 in ENE 1.0 mph 8.0 mph 55 % 0.00 in
13:47 95.5 °F 77.9 °F 30.04 in SSW 2.0 mph 8.0 mph 57 % 0.00 in
13:52 96.3 °F 75.7 °F 30.04 in SSE 2.0 mph 8.0 mph 52 % 0.00 in
13:57 96.8 °F 75.7 °F 30.04 in SE 2.0 mph 8.0 mph 51 % 0.00 in
14:02 96.6 °F 75.6 °F 30.04 in South 2.0 mph 7.0 mph 51 % 0.00 in
14:07 96.4 °F 75.9 °F 30.04 in SE 3.0 mph 7.0 mph 52 % 0.00 in
14:12 96.3 °F 75.2 °F 30.04 in South 1.0 mph 7.0 mph 51 % 0.00 in
14:17 96.3 °F 76.3 °F 30.04 in SSW 7.0 mph 7.0 mph 53 % 0.00 in
14:22 96.4 °F 75.9 °F 30.04 in SSE 6.0 mph 11.0 mph 52 % 0.00 in
14:27 96.6 °F 77.2 °F 30.04 in SSW 2.0 mph 11.0 mph 54 % 0.00 in
14:32 97.2 °F 76.6 °F 30.03 in SSW 2.0 mph 11.0 mph 52 % 0.00 in
14:37 97.0 °F 76.5 °F 30.03 in Calm   10.0 mph 52 % 0.00 in
14:42 96.8 °F 76.8 °F 30.03 in West 1.0 mph 5.0 mph 53 % 0.00 in
14:47 96.8 °F 75.0 °F 30.02 in SE 4.0 mph 6.0 mph 50 % 0.00 in
14:53 96.4 °F 76.5 °F 30.02 in WSW 1.0 mph 6.0 mph 53 % 0.00 in
14:57 96.1 °F 74.5 °F 30.02 in SE 4.0 mph 6.0 mph 50 % 0.00 in
15:03 96.3 °F 74.7 °F 30.02 in Calm   7.0 mph 50 % 0.00 in
15:08 97.0 °F 76.5 °F 30.01 in SSE 1.0 mph 7.0 mph 52 % 0.00 in
15:13 97.9 °F 77.2 °F 30.01 in South 3.0 mph 7.0 mph 52 % 0.00 in
15:18 97.9 °F 76.1 °F 30.01 in SSW 2.0 mph 7.0 mph 50 % 0.00 in
15:23 97.9 °F 77.2 °F 30.01 in SE 2.0 mph 7.0 mph 52 % 0.00 in
15:28 97.9 °F 76.1 °F 30.00 in South 3.0 mph 7.0 mph 50 % 0.00 in
15:33 97.3 °F 76.8 °F 30.00 in SSW 1.0 mph 8.0 mph 52 % 0.00 in
15:38 97.2 °F 76.6 °F 30.00 in South 2.0 mph 8.0 mph 52 % 0.00 in
15:43 97.0 °F 77.0 °F 30.00 in South 3.0 mph 8.0 mph 53 % 0.00 in
15:48 96.3 °F 74.7 °F 29.99 in SE 1.0 mph 5.0 mph 50 % 0.00 in
15:53 96.1 °F 73.2 °F 29.99 in SSE 1.0 mph 5.0 mph 48 % 0.00 in
15:58 96.4 °F 74.8 °F 29.99 in Calm   6.0 mph 50 % 0.00 in
16:03 97.2 °F 77.2 °F 29.99 in NW 1.0 mph 6.0 mph 53 % 0.00 in
16:08 97.7 °F 74.7 °F 29.99 in Calm   6.0 mph 48 % 0.00 in
16:13 97.9 °F 74.8 °F 29.99 in SW 1.0 mph 5.0 mph 48 % 0.00 in
16:18 98.2 °F 75.7 °F 29.99 in SSW 1.0 mph 5.0 mph 49 % 0.00 in
16:23 98.4 °F 75.9 °F 29.99 in WNW 1.0 mph 5.0 mph 49 % 0.00 in
16:28 98.8 °F 75.0 °F 29.99 in NNW 3.0 mph 4.0 mph 47 % 0.00 in
16:33 98.8 °F 77.5 °F 29.99 in SSW 1.0 mph 5.0 mph 51 % 0.00 in
16:38 98.4 °F 74.7 °F 29.99 in WNW 1.0 mph 5.0 mph 47 % 0.00 in
16:43 98.2 °F 77.0 °F 29.99 in Calm   5.0 mph 51 % 0.00 in
16:48 98.4 °F 76.6 °F 29.99 in SSW 3.0 mph 5.0 mph 50 % 0.00 in
16:53 98.2 °F 79.3 °F 29.99 in SSW 6.0 mph 6.0 mph 55 % 0.00 in
16:58 97.3 °F 80.1 °F 29.98 in SW 1.0 mph 11.0 mph 58 % 0.00 in
17:03 96.4 °F 79.7 °F 29.98 in WNW 1.0 mph 11.0 mph 59 % 0.00 in
17:08 96.4 °F 80.2 °F 29.99 in SSW 1.0 mph 11.0 mph 60 % 0.00 in
17:09 96.4 °F 79.7 °F 29.99 in Calm   11.0 mph 59 % 0.00 in
17:15 96.4 °F 80.2 °F 29.99 in West 3.0 mph 7.0 mph 60 % 0.00 in
17:20 96.1 °F 80.4 °F 29.99 in WNW 5.0 mph 7.0 mph 61 % 0.00 in
17:25 96.1 °F 79.3 °F 30.00 in SSE 3.0 mph 8.0 mph 59 % 0.00 in
17:30 93.7 °F 78.8 °F 30.00 in East 8.0 mph 8.0 mph 62 % 0.00 in
17:35 91.0 °F 78.6 °F 30.01 in ESE 5.0 mph 12.0 mph 67 % 0.00 in
17:40 89.8 °F 77.7 °F 30.01 in ENE 4.0 mph 13.0 mph 68 % 0.00 in
17:45 88.9 °F 77.9 °F 30.01 in SE 7.0 mph 13.0 mph 70 % 0.00 in
17:50 88.0 °F 77.9 °F 30.01 in South 7.0 mph 11.0 mph 72 % 0.00 in
17:55 87.3 °F 77.2 °F 30.01 in SE 7.0 mph 11.0 mph 72 % 0.00 in
18:00 87.3 °F 77.9 °F 30.01 in North 5.0 mph 11.0 mph 74 % 0.00 in
18:05 87.4 °F 78.6 °F 30.01 in ESE 7.0 mph 11.0 mph 75 % 0.00 in
18:10 87.1 °F 78.6 °F 30.01 in ESE 9.0 mph 9.0 mph 76 % 0.00 in
18:15 86.5 °F 78.4 °F 30.01 in SE 3.0 mph 9.0 mph 77 % 0.00 in
18:20 86.4 °F 78.3 °F 30.01 in SSW 4.0 mph 9.0 mph 77 % 0.00 in
18:25 86.4 °F 77.9 °F 30.01 in SE 5.0 mph 9.0 mph 76 % 0.00 in
18:30 85.8 °F 77.7 °F 30.01 in SE 3.0 mph 9.0 mph 77 % 0.00 in
18:35 85.6 °F 77.5 °F 30.01 in SE 4.0 mph 9.0 mph 77 % 0.00 in
18:40 85.6 °F 77.5 °F 30.01 in ESE 8.0 mph 9.0 mph 77 % 0.00 in
18:45 85.8 °F 78.1 °F 30.01 in SE 6.0 mph 10.0 mph 78 % 0.00 in
18:50 85.6 °F 78.4 °F 30.01 in ESE 2.0 mph 10.0 mph 79 % 0.00 in
18:55 85.3 °F 78.4 °F 30.01 in SE 1.0 mph 8.0 mph 80 % 0.00 in
19:00 84.9 °F 78.4 °F 30.01 in East 4.0 mph 7.0 mph 81 % 0.00 in
19:05 84.7 °F 78.6 °F 30.01 in ESE 3.0 mph 7.0 mph 82 % 0.00 in
19:10 84.4 °F 78.6 °F 30.01 in South 2.0 mph 5.0 mph 83 % 0.00 in
19:15 83.8 °F 78.4 °F 30.01 in SE 3.0 mph 5.0 mph 84 % 0.00 in
19:20 83.8 °F 78.8 °F 30.01 in East 1.0 mph 5.0 mph 85 % 0.00 in
19:25 83.7 °F 78.6 °F 30.01 in ESE 2.0 mph 5.0 mph 85 % 0.00 in
19:30 83.3 °F 78.6 °F 30.01 in East 2.0 mph 5.0 mph 86 % 0.00 in
19:35 82.9 °F 77.9 °F 30.01 in East 2.0 mph 5.0 mph 85 % 0.00 in
19:40 82.9 °F 77.9 °F 30.01 in SE 1.0 mph 5.0 mph 85 % 0.00 in
19:45 83.1 °F 78.1 °F 30.01 in East 1.0 mph 5.0 mph 85 % 0.00 in
19:50 83.1 °F 78.1 °F 30.01 in Calm   3.0 mph 85 % 0.00 in
19:55 83.3 °F 78.3 °F 30.01 in ENE 1.0 mph 3.0 mph 85 % 0.00 in
20:00 83.3 °F 78.3 °F 30.01 in ESE 1.0 mph 4.0 mph 85 % 0.00 in
20:05 83.3 °F 78.6 °F 30.01 in ENE 1.0 mph 4.0 mph 86 % 0.00 in
20:10 83.1 °F 78.4 °F 30.01 in East 1.0 mph 4.0 mph 86 % 0.00 in
20:15 83.1 °F 78.8 °F 30.02 in Calm   3.0 mph 87 % 0.00 in
20:20 82.9 °F 78.6 °F 30.02 in ESE 2.0 mph 5.0 mph 87 % 0.00 in
20:25 82.8 °F 78.8 °F 30.02 in SSE 2.0 mph 5.0 mph 88 % 0.00 in
20:30 82.8 °F 78.8 °F 30.02 in SE 1.0 mph 5.0 mph 88 % 0.00 in
20:35 82.8 °F 78.8 °F 30.02 in East 2.0 mph 6.0 mph 88 % 0.00 in
20:40 82.8 °F 78.8 °F 30.02 in SE 2.0 mph 6.0 mph 88 % 0.00 in
20:45 82.6 °F 79.0 °F 30.03 in SSE 2.0 mph 6.0 mph 89 % 0.00 in
20:50 82.6 °F 79.0 °F 30.03 in ENE 1.0 mph 4.0 mph 89 % 0.00 in
20:55 82.6 °F 79.0 °F 30.02 in SSE 1.0 mph 3.0 mph 89 % 0.00 in
21:00 82.6 °F 79.0 °F 30.03 in SE 2.0 mph 3.0 mph 89 % 0.00 in
21:05 82.6 °F 79.0 °F 30.03 in ESE 3.0 mph 4.0 mph 89 % 0.00 in
21:11 82.6 °F 79.0 °F 30.03 in ENE 1.0 mph 4.0 mph 89 % 0.00 in
21:16 82.6 °F 79.0 °F 30.03 in Calm   4.0 mph 89 % 0.00 in
21:21 82.4 °F 79.2 °F 30.04 in Calm   3.0 mph 90 % 0.00 in
21:26 82.2 °F 79.0 °F 30.04 in ESE 1.0 mph 2.0 mph 90 % 0.00 in
21:31 82.2 °F 79.0 °F 30.04 in Calm   2.0 mph 90 % 0.00 in
21:36 82.2 °F 79.0 °F 30.04 in ESE 2.0 mph 2.0 mph 90 % 0.00 in
21:41 82.2 °F 79.0 °F 30.04 in SE 1.0 mph 3.0 mph 90 % 0.00 in
21:46 82.2 °F 79.0 °F 30.04 in ESE 1.0 mph 3.0 mph 90 % 0.00 in
21:51 82.2 °F 79.0 °F 30.04 in SE 1.0 mph 3.0 mph 90 % 0.00 in
21:56 82.2 °F 79.0 °F 30.04 in East 2.0 mph 3.0 mph 90 % 0.00 in
22:01 82.2 °F 79.0 °F 30.03 in ESE 1.0 mph 4.0 mph 90 % 0.00 in
22:06 82.2 °F 79.0 °F 30.03 in ESE 2.0 mph 4.0 mph 90 % 0.00 in
22:11 82.2 °F 79.0 °F 30.03 in East 2.0 mph 4.0 mph 90 % 0.00 in
22:16 82.2 °F 79.0 °F 30.03 in SSW 2.0 mph 3.0 mph 90 % 0.00 in
22:19 82.2 °F 79.0 °F 30.03 in South 2.0 mph 3.0 mph 90 % 0.00 in
22:21 82.2 °F 79.0 °F 30.03 in SSW 3.0 mph 4.0 mph 90 % 0.00 in
22:23 82.2 °F 79.0 °F 30.03 in SE 2.0 mph 4.0 mph 90 % 0.00 in
22:28 82.0 °F 79.2 °F 30.03 in SSE 1.0 mph 4.0 mph 91 % 0.00 in
22:33 82.0 °F 79.2 °F 30.03 in SSE 2.0 mph 4.0 mph 91 % 0.00 in
22:38 82.2 °F 79.3 °F 30.03 in SE 1.0 mph 3.0 mph 91 % 0.00 in
22:43 82.2 °F 79.3 °F 30.03 in Calm   3.0 mph 91 % 0.00 in
22:48 82.2 °F 79.3 °F 30.04 in South 3.0 mph 3.0 mph 91 % 0.00 in
22:53 82.2 °F 79.0 °F 30.04 in SSE 1.0 mph 4.0 mph 90 % 0.00 in
22:58 82.4 °F 79.2 °F 30.04 in Calm   4.0 mph 90 % 0.00 in
23:03 82.4 °F 79.2 °F 30.03 in Calm   4.0 mph 90 % 0.00 in
23:08 82.4 °F 79.2 °F 30.04 in SE 1.0 mph 4.0 mph 90 % 0.00 in
23:13 82.4 °F 79.2 °F 30.04 in SSE 1.0 mph 2.0 mph 90 % 0.00 in
23:18 82.2 °F 79.0 °F 30.03 in SSE 1.0 mph 3.0 mph 90 % 0.00 in
23:23 82.2 °F 79.0 °F 30.03 in Calm   3.0 mph 90 % 0.00 in
23:28 82.2 °F 79.3 °F 30.02 in Calm   3.0 mph 91 % 0.00 in
23:29 82.2 °F 79.3 °F 30.02 in SSE 1.0 mph 3.0 mph 91 % 0.00 in
23:34 82.2 °F 79.3 °F 30.02 in SSE 2.0 mph 3.0 mph 91 % 0.00 in
23:39 82.0 °F 79.2 °F 30.02 in SSW 1.0 mph 3.0 mph 91 % 0.00 in
23:44 82.0 °F 79.2 °F 30.03 in South 1.0 mph 3.0 mph 91 % 0.00 in
23:49 82.0 °F 79.2 °F 30.02 in South 3.0 mph 3.0 mph 91 % 0.00 in
23:54 82.0 °F 79.2 °F 30.02 in SSE 1.0 mph 3.0 mph 91 % 0.00 in
23:59 82.0 °F 79.2 °F 30.02 in SSW 2.0 mph 3.0 mph 91 % 0.00 in
Spring, Texas: Villages of Bridgestone
Compliments of Weather Underground - 3 mb

Script developed by  Jim McMurry - jmcmurry@mwt.net Adapted for the template by  Wim van der Kuil - Leuven-Template.eu

You find our weather info also at:

UK Metoffice

WeatherCloud

Weather Underground

Mid-South Weather Network

AWEKAS

Citizen Weather Observer Program (CWOP)

HAMweather, WeatherForYou, PWS Weather

Equipment we use:

Weather-station
Davis Vantage Vue

Weather-program
Meteohub

Weather-server
Debian 7.9 x86 (Guest)

Provider
DreamHost

Davis Vantage Vue

Meteohub

Debian 7.9 x86 (Guest)

DreamHost